Time;durP1;ratioP1;P1;durP2;ratioP2;P2;SDS_P1;SDS_P2;PMS_P1;PMS_P2;Temp;Humidity;BMP_temperature;BMP_pressure;BME280_temperature;BME280_humidity;BME280_pressure;Samples;Min_cycle;Max_cycle;Signal;HPM_P1;HPM_P2
2023/05/17 00:01:30;;;;;;;1.60;0.53;;;;;;;;;;5006039;28;20205;-57
2023/05/17 00:03:57;;;;;;;0.57;0.57;;;;;;;;;;5002649;28;20205;-57
2023/05/17 00:06:24;;;;;;;1.13;0.57;;;;;;;;;;4997449;28;20292;-57
2023/05/17 00:08:51;;;;;;;1.07;0.43;;;;;;;;;;5001928;28;20216;-57
2023/05/17 00:11:18;;;;;;;0.67;0.67;;;;;;;;;;4999789;28;20214;-57
2023/05/17 00:13:45;;;;;;;0.70;0.50;;;;;;;;;;5006745;28;20201;-57
2023/05/17 00:16:14;;;;;;;2.30;0.40;;;;;;;;;;5004464;28;20200;-57
2023/05/17 00:18:41;;;;;;;0.70;0.50;;;;;;;;;;5007934;28;20303;-57
2023/05/17 00:21:08;;;;;;;4.00;0.83;;;;;;;;;;4991283;28;20252;-58
2023/05/17 00:23:35;;;;;;;1.00;0.63;;;;;;;;;;4976023;28;20288;-57
2023/05/17 00:26:02;;;;;;;2.90;0.80;;;;;;;;;;4985201;28;20201;-57
2023/05/17 00:28:29;;;;;;;0.60;0.60;;;;;;;;;;4985359;28;20229;-57
2023/05/17 00:30:56;;;;;;;0.83;0.77;;;;;;;;;;4979777;28;20209;-58
2023/05/17 00:33:24;;;;;;;0.50;0.50;;;;;;;;;;4986611;28;20719;-57
2023/05/17 00:35:51;;;;;;;2.67;0.60;;;;;;;;;;4973866;28;20214;-57
2023/05/17 00:38:18;;;;;;;0.67;0.67;;;;;;;;;;4969454;28;20225;-57
2023/05/17 00:40:45;;;;;;;0.47;0.47;;;;;;;;;;4981198;28;20209;-57
2023/05/17 00:43:12;;;;;;;0.60;0.53;;;;;;;;;;4979003;28;20206;-57
2023/05/17 00:45:39;;;;;;;0.57;0.50;;;;;;;;;;4983495;28;20256;-57
2023/05/17 00:48:06;;;;;;;0.70;0.70;;;;;;;;;;4975229;28;20265;-57
2023/05/17 00:50:35;;;;;;;0.70;0.70;;;;;;;;;;4978390;28;20237;-57
2023/05/17 00:53:02;;;;;;;2.10;0.50;;;;;;;;;;4976175;28;20297;-57
2023/05/17 00:55:29;;;;;;;0.60;0.60;;;;;;;;;;4974493;28;20281;-57
2023/05/17 00:57:56;;;;;;;0.70;0.70;;;;;;;;;;4988553;28;20836;-57
2023/05/17 01:00:24;;;;;;;1.17;0.90;;;;;;;;;;4985392;28;20210;-57
2023/05/17 01:02:51;;;;;;;3.07;0.60;;;;;;;;;;4969046;28;20210;-57
2023/05/17 01:05:18;;;;;;;0.93;0.60;;;;;;;;;;4976419;28;20218;-58
2023/05/17 01:07:46;;;;;;;0.80;0.80;;;;;;;;;;4983359;28;20205;-57
2023/05/17 01:10:13;;;;;;;1.00;0.60;;;;;;;;;;4983769;28;20614;-57
2023/05/17 01:12:46;;;;;;;1.00;1.00;;;;;;;;;;4974992;28;20261;-57
2023/05/17 01:15:15;;;;;;;0.70;0.50;;;;;;;;;;4984329;28;20306;-57
2023/05/17 01:17:47;;;;;;;1.50;0.83;;;;;;;;;;4975330;28;20688;-57
2023/05/17 01:20:18;;;;;;;2.40;1.00;;;;;;;;;;4980930;28;20230;-57
2023/05/17 01:22:51;;;;;;;3.67;1.33;;;;;;;;;;4989813;28;20232;-57
2023/05/17 01:25:29;;;;;;;0.90;0.53;;;;;;;;;;5008669;28;20217;-55
2023/05/17 01:28:00;;;;;;;1.67;0.70;;;;;;;;;;4999226;28;20763;-55
2023/05/17 01:30:28;;;;;;;0.90;0.90;;;;;;;;;;5000636;28;20328;-56
2023/05/17 01:32:56;;;;;;;1.60;0.70;;;;;;;;;;5007384;28;20307;-55
2023/05/17 01:35:23;;;;;;;0.80;0.70;;;;;;;;;;5006469;28;20216;-56
2023/05/17 01:37:50;;;;;;;1.33;0.70;;;;;;;;;;5002070;28;20209;-56
2023/05/17 01:40:18;;;;;;;0.70;0.70;;;;;;;;;;5004215;28;20300;-56
2023/05/17 01:42:45;;;;;;;1.17;0.80;;;;;;;;;;4998684;28;20632;-56
2023/05/17 01:45:18;;;;;;;1.37;0.80;;;;;;;;;;5005673;28;20205;-56
2023/05/17 01:47:50;;;;;;;1.70;0.80;;;;;;;;;;5008491;28;20217;-55
2023/05/17 01:50:18;;;;;;;3.00;0.90;;;;;;;;;;5003774;28;20280;-54
2023/05/17 01:52:49;;;;;;;0.90;0.90;;;;;;;;;;4992466;28;20614;-55
2023/05/17 01:55:20;;;;;;;1.10;0.93;;;;;;;;;;4994599;28;20443;-55
2023/05/17 01:57:48;;;;;;;1.00;0.90;;;;;;;;;;4999333;28;20250;-55
2023/05/17 02:00:17;;;;;;;0.60;0.60;;;;;;;;;;4996463;28;20585;-56
2023/05/17 02:02:45;;;;;;;0.80;0.80;;;;;;;;;;4993647;28;20216;-55
2023/05/17 02:05:12;;;;;;;2.87;0.80;;;;;;;;;;5002685;28;20213;-56
2023/05/17 02:07:39;;;;;;;1.17;1.00;;;;;;;;;;5003112;28;20232;-56
2023/05/17 02:10:06;;;;;;;2.97;0.90;;;;;;;;;;5003427;28;20233;-55
2023/05/17 02:12:33;;;;;;;0.73;0.73;;;;;;;;;;5004344;28;20694;-56
2023/05/17 02:15:00;;;;;;;1.13;0.90;;;;;;;;;;5003488;28;20343;-57
2023/05/17 02:17:29;;;;;;;1.00;1.00;;;;;;;;;;4994930;28;20815;-57
2023/05/17 02:19:56;;;;;;;1.63;0.93;;;;;;;;;;5000553;28;20283;-57
2023/05/17 02:22:25;;;;;;;1.70;0.77;;;;;;;;;;4997912;28;20240;-57
2023/05/17 02:24:53;;;;;;;1.80;1.00;;;;;;;;;;4999343;28;20216;-57
2023/05/17 02:27:21;;;;;;;0.87;0.83;;;;;;;;;;4995184;28;20210;-57
2023/05/17 02:29:48;;;;;;;1.73;1.00;;;;;;;;;;5001422;28;20661;-57
2023/05/17 02:32:15;;;;;;;1.30;1.20;;;;;;;;;;5005822;28;20563;-56
2023/05/17 02:34:43;;;;;;;1.67;1.00;;;;;;;;;;4994305;28;20304;-56
2023/05/17 02:37:10;;;;;;;1.33;1.17;;;;;;;;;;5007670;28;20282;-56
2023/05/17 02:39:37;;;;;;;1.73;1.10;;;;;;;;;;4999443;28;20220;-56
2023/05/17 02:42:05;;;;;;;2.30;0.83;;;;;;;;;;5006134;28;20212;-57
2023/05/17 02:44:32;;;;;;;0.90;0.90;;;;;;;;;;5003139;28;20675;-57
2023/05/17 02:46:59;;;;;;;1.77;1.03;;;;;;;;;;4996113;28;20264;-57
2023/05/17 02:49:26;;;;;;;2.50;0.90;;;;;;;;;;5003783;28;20647;-57
2023/05/17 02:51:54;;;;;;;2.27;1.00;;;;;;;;;;4990029;28;20210;-57
2023/05/17 02:54:21;;;;;;;2.70;1.27;;;;;;;;;;4994625;28;20288;-57
2023/05/17 02:56:49;;;;;;;1.23;1.00;;;;;;;;;;5004419;28;20213;-57
2023/05/17 02:59:16;;;;;;;4.83;1.27;;;;;;;;;;5002507;28;20675;-57
2023/05/17 03:01:43;;;;;;;0.97;0.97;;;;;;;;;;4996226;28;20221;-57
2023/05/17 03:04:10;;;;;;;1.00;0.90;;;;;;;;;;4989281;28;20217;-57
2023/05/17 03:06:38;;;;;;;2.60;1.10;;;;;;;;;;4997669;28;20224;-57
2023/05/17 03:09:06;;;;;;;1.30;1.20;;;;;;;;;;5003844;28;20263;-57
2023/05/17 03:11:33;;;;;;;3.20;1.10;;;;;;;;;;5005143;28;20309;-57
2023/05/17 03:14:00;;;;;;;2.50;1.07;;;;;;;;;;5010050;28;20220;-57
2023/05/17 03:16:27;;;;;;;2.43;1.10;;;;;;;;;;5001798;28;20217;-57
2023/05/17 03:18:54;;;;;;;1.60;0.90;;;;;;;;;;4992290;28;20214;-57
2023/05/17 03:21:21;;;;;;;2.30;1.07;;;;;;;;;;4998892;28;20704;-57
2023/05/17 03:23:48;;;;;;;1.23;1.03;;;;;;;;;;5004809;28;20233;-57
2023/05/17 03:26:18;;;;;;;1.50;0.93;;;;;;;;;;5005378;28;20205;-56
2023/05/17 03:28:45;;;;;;;1.07;1.07;;;;;;;;;;4990785;28;20291;-57
2023/05/17 03:31:12;;;;;;;2.13;0.83;;;;;;;;;;4999871;28;20279;-58
2023/05/17 03:33:39;;;;;;;4.77;1.03;;;;;;;;;;5001051;28;20209;-57
2023/05/17 03:36:07;;;;;;;0.70;0.70;;;;;;;;;;5001433;28;20263;-57
2023/05/17 03:38:34;;;;;;;3.20;0.93;;;;;;;;;;4997264;28;20756;-57
2023/05/17 03:41:02;;;;;;;0.70;0.70;;;;;;;;;;5002618;28;20708;-57
2023/05/17 03:43:30;;;;;;;0.80;0.63;;;;;;;;;;4994521;28;20224;-57
2023/05/17 03:45:57;;;;;;;0.73;0.73;;;;;;;;;;5007889;28;20205;-57
2023/05/17 03:48:24;;;;;;;2.37;0.93;;;;;;;;;;5002192;28;20267;-57
2023/05/17 03:50:51;;;;;;;0.83;0.70;;;;;;;;;;5002237;28;20279;-57
2023/05/17 03:53:18;;;;;;;1.10;1.10;;;;;;;;;;4998625;28;20213;-57
2023/05/17 03:55:45;;;;;;;1.10;1.00;;;;;;;;;;5002492;28;20314;-57
2023/05/17 03:58:12;;;;;;;3.50;1.10;;;;;;;;;;4991253;28;20306;-57
2023/05/17 04:00:40;;;;;;;3.00;0.90;;;;;;;;;;5001291;28;20201;-57
2023/05/17 04:03:16;;;;;;;1.60;0.60;;;;;;;;;;5004042;28;20224;-57
2023/05/17 04:05:45;;;;;;;2.27;0.77;;;;;;;;;;4997025;28;20209;-57
2023/05/17 04:08:12;;;;;;;2.67;0.87;;;;;;;;;;5006594;28;20733;-58
2023/05/17 04:10:40;;;;;;;1.13;0.87;;;;;;;;;;5002629;28;20233;-57
2023/05/17 04:13:08;;;;;;;0.90;0.90;;;;;;;;;;4994832;28;20206;-57
2023/05/17 04:15:35;;;;;;;2.93;0.93;;;;;;;;;;4996058;28;20315;-57
2023/05/17 04:18:03;;;;;;;1.80;0.77;;;;;;;;;;5004479;28;20335;-57
2023/05/17 04:20:30;;;;;;;0.73;0.60;;;;;;;;;;5006900;28;20224;-57
2023/05/17 04:22:57;;;;;;;0.90;0.90;;;;;;;;;;4998706;28;20240;-57
2023/05/17 04:25:24;;;;;;;2.47;1.13;;;;;;;;;;4994087;28;20210;-57
2023/05/17 04:27:51;;;;;;;1.57;0.80;;;;;;;;;;5005491;28;20212;-57
2023/05/17 04:30:20;;;;;;;3.30;1.03;;;;;;;;;;5004214;28;20235;-57
2023/05/17 04:32:49;;;;;;;0.87;0.87;;;;;;;;;;5005436;28;20667;-57
2023/05/17 04:35:17;;;;;;;0.73;0.73;;;;;;;;;;4997990;28;20241;-57
2023/05/17 04:37:44;;;;;;;1.13;0.60;;;;;;;;;;4988602;28;20599;-57
2023/05/17 04:40:13;;;;;;;1.13;1.03;;;;;;;;;;4987842;28;20205;-57
2023/05/17 04:42:40;;;;;;;0.70;0.67;;;;;;;;;;4988464;28;20209;-57
2023/05/17 04:45:08;;;;;;;0.70;0.70;;;;;;;;;;4996686;28;20208;-56
2023/05/17 04:47:35;;;;;;;2.13;1.20;;;;;;;;;;5000057;28;20209;-57
2023/05/17 04:50:03;;;;;;;1.10;0.63;;;;;;;;;;4996277;28;20264;-57
2023/05/17 04:52:32;;;;;;;4.53;0.70;;;;;;;;;;5001169;28;20371;-57
2023/05/17 04:54:59;;;;;;;1.13;1.13;;;;;;;;;;4998107;28;20209;-57
2023/05/17 04:57:26;;;;;;;1.07;0.90;;;;;;;;;;4994884;28;20313;-57
2023/05/17 04:59:53;;;;;;;0.93;0.90;;;;;;;;;;4997680;28;20217;-57
2023/05/17 05:02:31;;;;;;;1.80;0.87;;;;;;;;;;4997317;28;20814;-58
2023/05/17 05:04:58;;;;;;;3.53;1.90;;;;;;;;;;4995474;28;20275;-56
2023/05/17 05:07:25;;;;;;;0.90;0.70;;;;;;;;;;4998715;28;20205;-57
2023/05/17 05:09:53;;;;;;;1.00;1.00;;;;;;;;;;4999956;28;20279;-58
2023/05/17 05:12:20;;;;;;;1.43;0.90;;;;;;;;;;5017073;28;20206;-56
2023/05/17 05:14:47;;;;;;;1.10;1.10;;;;;;;;;;4995188;28;20209;-56
2023/05/17 05:17:14;;;;;;;0.70;0.70;;;;;;;;;;4996957;28;20205;-57
2023/05/17 05:19:41;;;;;;;2.87;0.97;;;;;;;;;;5005577;28;20236;-56
2023/05/17 05:22:08;;;;;;;2.43;0.90;;;;;;;;;;4991797;28;20284;-56
2023/05/17 05:24:35;;;;;;;2.60;1.10;;;;;;;;;;4996041;28;20216;-56
2023/05/17 05:27:04;;;;;;;1.10;1.10;;;;;;;;;;4992217;28;20315;-56
2023/05/17 05:29:31;;;;;;;3.00;1.13;;;;;;;;;;4998661;28;20701;-56
2023/05/17 05:31:58;;;;;;;1.03;0.93;;;;;;;;;;4997475;28;20236;-57
2023/05/17 05:34:27;;;;;;;1.03;0.97;;;;;;;;;;5005352;28;20217;-56
2023/05/17 05:36:54;;;;;;;1.03;0.80;;;;;;;;;;4997677;28;20209;-55
2023/05/17 05:39:21;;;;;;;1.23;1.10;;;;;;;;;;4990819;28;20497;-56
2023/05/17 05:41:48;;;;;;;1.10;1.10;;;;;;;;;;5003869;28;20209;-56
2023/05/17 05:44:16;;;;;;;1.23;1.23;;;;;;;;;;4999445;28;20354;-56
2023/05/17 05:46:43;;;;;;;1.00;1.00;;;;;;;;;;5003770;28;20212;-56
2023/05/17 05:49:10;;;;;;;2.72;1.00;;;;;;;;;;4996517;28;20962;-65
2023/05/17 05:51:37;;;;;;;2.60;1.35;;;;;;;;;;5007969;28;20240;-58
2023/05/17 05:54:04;;;;;;;5.80;1.55;;;;;;;;;;5004145;28;20209;-58
2023/05/17 05:56:31;;;;;;;6.57;1.63;;;;;;;;;;5009497;28;20217;-58
2023/05/17 05:58:58;;;;;;;1.02;0.98;;;;;;;;;;5009816;28;20225;-58
2023/05/17 06:01:27;;;;;;;1.65;1.30;;;;;;;;;;5009849;28;20216;-58
2023/05/17 06:03:54;;;;;;;1.33;1.20;;;;;;;;;;5007901;28;20213;-62
2023/05/17 06:06:21;;;;;;;1.55;1.30;;;;;;;;;;5009154;28;20213;-58
2023/05/17 06:08:48;;;;;;;2.10;1.02;;;;;;;;;;5002436;28;20862;-58
2023/05/17 06:11:17;;;;;;;1.27;1.00;;;;;;;;;;4989835;28;20240;-58
2023/05/17 06:13:44;;;;;;;1.33;1.23;;;;;;;;;;5005622;28;20205;-59
2023/05/17 06:16:11;;;;;;;1.95;0.90;;;;;;;;;;5008826;28;20213;-58
2023/05/17 06:18:39;;;;;;;2.25;1.02;;;;;;;;;;5008472;28;20278;-57
2023/05/17 06:21:06;;;;;;;1.15;1.15;;;;;;;;;;5008214;28;20316;-57
2023/05/17 06:23:33;;;;;;;5.88;1.33;;;;;;;;;;5008801;28;20247;-59
2023/05/17 06:26:00;;;;;;;1.15;1.08;;;;;;;;;;5009163;28;20584;-59
2023/05/17 06:28:27;;;;;;;0.52;0.52;;;;;;;;;;4989934;28;20296;-59
2023/05/17 06:30:54;;;;;;;4.43;0.85;;;;;;;;;;4989636;28;20228;-59
2023/05/17 06:33:21;;;;;;;2.08;0.80;;;;;;;;;;5006426;28;20216;-59
2023/05/17 06:35:50;;;;;;;2.00;0.95;;;;;;;;;;5007138;28;20259;-59
2023/05/17 06:38:17;;;;;;;1.17;1.02;;;;;;;;;;5008702;28;20307;-59
2023/05/17 06:40:44;;;;;;;1.13;1.10;;;;;;;;;;5006093;28;20213;-59
2023/05/17 06:43:11;;;;;;;0.65;0.65;;;;;;;;;;5007076;28;20209;-59
2023/05/17 06:45:38;;;;;;;1.42;0.73;;;;;;;;;;4998675;28;20672;-59
2023/05/17 06:48:05;;;;;;;1.58;0.90;;;;;;;;;;4989204;28;20214;-59
2023/05/17 06:50:32;;;;;;;6.07;0.93;;;;;;;;;;4993425;28;20243;-58
2023/05/17 06:53:01;;;;;;;1.25;1.15;;;;;;;;;;4997855;28;20213;-58
2023/05/17 06:55:28;;;;;;;2.78;0.88;;;;;;;;;;4990338;28;20235;-58
2023/05/17 06:57:55;;;;;;;1.40;1.00;;;;;;;;;;5008104;28;20249;-59
2023/05/17 07:00:22;;;;;;;1.03;0.53;;;;;;;;;;4989245;28;20217;-59
2023/05/17 07:02:49;;;;;;;2.30;0.97;;;;;;;;;;4998831;28;20244;-59
2023/05/17 07:05:16;;;;;;;0.83;0.73;;;;;;;;;;4989540;28;20206;-59
2023/05/17 07:07:43;;;;;;;1.13;0.97;;;;;;;;;;5006159;28;20485;-59
2023/05/17 07:10:12;;;;;;;1.80;0.90;;;;;;;;;;5007168;28;20209;-59
2023/05/17 07:12:39;;;;;;;2.13;0.93;;;;;;;;;;4991404;28;20295;-59
2023/05/17 07:15:06;;;;;;;1.00;1.00;;;;;;;;;;4988431;28;20213;-59
2023/05/17 07:17:33;;;;;;;0.70;0.67;;;;;;;;;;5002849;28;20807;-59
2023/05/17 07:20:00;;;;;;;0.87;0.60;;;;;;;;;;5007421;28;20233;-59
2023/05/17 07:22:27;;;;;;;0.93;0.83;;;;;;;;;;4993478;28;20230;-59
2023/05/17 07:24:54;;;;;;;0.90;0.90;;;;;;;;;;4988223;28;20268;-59
2023/05/17 07:27:23;;;;;;;3.72;1.13;;;;;;;;;;5001185;28;20634;-60
2023/05/17 07:29:50;;;;;;;1.08;0.60;;;;;;;;;;5016945;28;20244;-59
2023/05/17 07:32:17;;;;;;;1.80;0.98;;;;;;;;;;5007090;28;20662;-60
2023/05/17 07:34:44;;;;;;;0.82;0.82;;;;;;;;;;5007384;28;20208;-59
2023/05/17 07:37:11;;;;;;;3.65;1.00;;;;;;;;;;5007114;28;20299;-58
2023/05/17 07:39:38;;;;;;;4.32;1.15;;;;;;;;;;5007179;28;20235;-58
2023/05/17 07:42:06;;;;;;;1.10;1.10;;;;;;;;;;5007151;28;20216;-60
2023/05/17 07:44:34;;;;;;;0.88;0.85;;;;;;;;;;5006373;28;20201;-58
2023/05/17 07:47:01;;;;;;;1.65;1.00;;;;;;;;;;4993794;28;20213;-59
2023/05/17 07:49:28;;;;;;;1.02;0.90;;;;;;;;;;5005506;28;20717;-58
2023/05/17 07:51:55;;;;;;;2.42;1.05;;;;;;;;;;4988078;28;20229;-57
2023/05/17 07:54:23;;;;;;;1.13;0.75;;;;;;;;;;4987262;28;20215;-58
2023/05/17 07:56:51;;;;;;;0.95;0.90;;;;;;;;;;4995253;28;20288;-57
2023/05/17 07:59:19;;;;;;;0.77;0.77;;;;;;;;;;4987432;28;20313;-58
2023/05/17 08:01:47;;;;;;;4.45;0.70;;;;;;;;;;4998669;28;20205;-61
2023/05/17 08:04:14;;;;;;;2.35;0.90;;;;;;;;;;5006764;28;20213;-58
2023/05/17 08:06:41;;;;;;;0.88;0.88;;;;;;;;;;5004556;28;20208;-58
2023/05/17 08:09:09;;;;;;;2.75;1.00;;;;;;;;;;5006624;28;20913;-58
2023/05/17 08:11:40;;;;;;;2.85;1.08;;;;;;;;;;4990318;28;20745;-56
2023/05/17 08:14:07;;;;;;;1.35;0.90;;;;;;;;;;4988510;28;20205;-57
2023/05/17 08:16:35;;;;;;;3.78;1.17;;;;;;;;;;4986773;28;20234;-58
2023/05/17 08:19:03;;;;;;;0.90;0.60;;;;;;;;;;4990912;28;20224;-58
2023/05/17 08:21:30;;;;;;;1.85;0.90;;;;;;;;;;5004861;28;20224;-57
2023/05/17 08:23:58;;;;;;;2.10;0.82;;;;;;;;;;4996644;28;20262;-57
2023/05/17 08:26:25;;;;;;;1.57;0.90;;;;;;;;;;5004704;28;20208;-57
2023/05/17 08:28:52;;;;;;;0.77;0.77;;;;;;;;;;5001216;28;20202;-57
2023/05/17 08:31:19;;;;;;;1.40;1.00;;;;;;;;;;4999445;28;20232;-57
2023/05/17 08:33:46;;;;;;;0.90;0.70;;;;;;;;;;5004569;28;20220;-57
2023/05/17 08:36:15;;;;;;;0.95;0.85;;;;;;;;;;4994227;28;20858;-57
2023/05/17 08:38:42;;;;;;;0.77;0.63;;;;;;;;;;5000829;28;20245;-57
2023/05/17 08:41:09;;;;;;;0.83;0.70;;;;;;;;;;5004320;28;20286;-57
2023/05/17 08:43:37;;;;;;;1.42;0.60;;;;;;;;;;5006094;28;20401;-57
2023/05/17 08:46:04;;;;;;;2.33;0.93;;;;;;;;;;5005709;28;20679;-57
2023/05/17 08:48:31;;;;;;;1.02;0.73;;;;;;;;;;4994414;28;20210;-57
2023/05/17 08:50:58;;;;;;;0.70;0.70;;;;;;;;;;5009228;28;20291;-57
2023/05/17 08:53:27;;;;;;;2.15;0.68;;;;;;;;;;5015333;28;20204;-56
2023/05/17 08:55:59;;;;;;;0.75;0.75;;;;;;;;;;4987443;28;20219;-57
2023/05/17 08:58:28;;;;;;;3.45;0.95;;;;;;;;;;4998043;28;20213;-58
2023/05/17 09:00:57;;;;;;;0.88;0.88;;;;;;;;;;5002766;28;20706;-60
2023/05/17 09:03:24;;;;;;;1.15;0.80;;;;;;;;;;4996132;28;20214;-59
2023/05/17 09:05:52;;;;;;;1.73;1.20;;;;;;;;;;4991470;28;20214;-57
2023/05/17 09:08:20;;;;;;;2.10;0.80;;;;;;;;;;5006605;28;20208;-57
2023/05/17 09:10:48;;;;;;;0.70;0.70;;;;;;;;;;5004758;28;20219;-57
2023/05/17 09:13:15;;;;;;;0.60;0.60;;;;;;;;;;5006953;28;20285;-57
2023/05/17 09:15:43;;;;;;;2.95;0.88;;;;;;;;;;5006485;28;20213;-57
2023/05/17 09:18:11;;;;;;;11.10;0.88;;;;;;;;;;5000313;28;20255;-57
2023/05/17 09:20:38;;;;;;;0.80;0.80;;;;;;;;;;5009700;28;20336;-58
2023/05/17 09:23:06;;;;;;;2.40;0.70;;;;;;;;;;5007976;28;20323;-58
2023/05/17 09:25:33;;;;;;;0.82;0.60;;;;;;;;;;5008714;28;20328;-58
2023/05/17 09:28:02;;;;;;;0.90;0.90;;;;;;;;;;5009261;28;20219;-58
2023/05/17 09:30:30;;;;;;;2.15;0.73;;;;;;;;;;5008796;28;20210;-58
2023/05/17 09:32:57;;;;;;;0.60;0.60;;;;;;;;;;5005352;28;20225;-57
2023/05/17 09:35:29;;;;;;;1.98;1.25;;;;;;;;;;5008488;28;20205;-57
2023/05/17 09:37:58;;;;;;;2.97;0.80;;;;;;;;;;5018780;28;20207;-57
2023/05/17 09:40:25;;;;;;;2.13;1.00;;;;;;;;;;5014940;28;20343;-57
2023/05/17 09:42:52;;;;;;;1.13;1.07;;;;;;;;;;5007162;28;20691;-57
2023/05/17 09:45:23;;;;;;;6.53;1.00;;;;;;;;;;5007935;28;20827;-57
2023/05/17 09:47:51;;;;;;;4.63;1.00;;;;;;;;;;5005826;28;20208;-57
2023/05/17 09:50:18;;;;;;;1.98;1.13;;;;;;;;;;5002127;28;20213;-57
2023/05/17 09:52:46;;;;;;;1.15;0.80;;;;;;;;;;5012576;28;20232;-57
2023/05/17 09:55:14;;;;;;;0.68;0.60;;;;;;;;;;5008414;28;20232;-58
2023/05/17 09:57:41;;;;;;;3.10;1.02;;;;;;;;;;5005222;28;20242;-58
2023/05/17 10:00:10;;;;;;;2.90;1.00;;;;;;;;;;5000603;28;20210;-57
2023/05/17 10:02:40;;;;;;;1.75;0.80;;;;;;;;;;5008002;28;20205;-57
2023/05/17 10:05:09;;;;;;;1.70;0.90;;;;;;;;;;4996590;28;20252;-57
2023/05/17 10:07:38;;;;;;;0.57;0.57;;;;;;;;;;5010020;28;20215;-58
2023/05/17 10:10:05;;;;;;;1.35;0.93;;;;;;;;;;5004990;28;20359;-58
2023/05/17 10:12:34;;;;;;;0.98;0.98;;;;;;;;;;5008833;28;20240;-58
2023/05/17 10:15:01;;;;;;;5.35;1.40;;;;;;;;;;5008577;28;20296;-57
2023/05/17 10:17:29;;;;;;;0.77;0.77;;;;;;;;;;5009110;28;20607;-58
2023/05/17 10:19:58;;;;;;;0.63;0.63;;;;;;;;;;5007198;28;20329;-56
2023/05/17 10:22:25;;;;;;;2.08;1.05;;;;;;;;;;5008717;28;20817;-57
2023/05/17 10:24:52;;;;;;;1.00;0.88;;;;;;;;;;5008594;28;20209;-56
2023/05/17 10:27:20;;;;;;;0.90;0.88;;;;;;;;;;5007357;28;20213;-57
2023/05/17 10:29:48;;;;;;;0.93;0.88;;;;;;;;;;5008612;28;20213;-56
2023/05/17 10:32:16;;;;;;;2.00;1.00;;;;;;;;;;5005336;28;20669;-56
2023/05/17 10:34:43;;;;;;;0.80;0.80;;;;;;;;;;4987660;28;20216;-57
2023/05/17 10:37:12;;;;;;;1.13;0.90;;;;;;;;;;4990068;28;20735;-57
2023/05/17 10:39:42;;;;;;;5.88;1.35;;;;;;;;;;4999174;28;20210;-57
2023/05/17 10:42:09;;;;;;;0.90;0.90;;;;;;;;;;4987806;28;20228;-58
2023/05/17 10:44:37;;;;;;;0.82;0.82;;;;;;;;;;4988928;28;20264;-56
2023/05/17 10:47:04;;;;;;;1.90;1.00;;;;;;;;;;5007505;28;20313;-56
2023/05/17 10:49:32;;;;;;;1.67;1.00;;;;;;;;;;4995619;28;20271;-56
2023/05/17 10:51:59;;;;;;;1.02;0.95;;;;;;;;;;4987686;28;20234;-56
2023/05/17 10:54:37;;;;;;;1.92;1.08;;;;;;;;;;4988677;28;20210;-57
2023/05/17 10:57:04;;;;;;;2.70;0.90;;;;;;;;;;4987821;28;20242;-56
2023/05/17 10:59:32;;;;;;;5.47;1.00;;;;;;;;;;4987559;28;20672;-56
2023/05/17 11:02:00;;;;;;;1.30;0.93;;;;;;;;;;4991105;28;20316;-56
2023/05/17 11:04:28;;;;;;;4.80;1.42;;;;;;;;;;4989964;28;20684;-57
2023/05/17 11:07:16;;;;;;;1.02;0.93;;;;;;;;;;4997570;28;20291;-57
2023/05/17 11:09:45;;;;;;;1.75;1.10;;;;;;;;;;5004151;28;20299;-57
2023/05/17 11:12:12;;;;;;;2.85;1.55;;;;;;;;;;5007668;28;20314;-57
2023/05/17 11:14:55;;;;;;;4.00;1.20;;;;;;;;;;4997608;28;20206;-57
2023/05/17 11:17:24;;;;;;;0.93;0.70;;;;;;;;;;4988107;28;20214;-57
2023/05/17 11:20:13;;;;;;;3.67;0.90;;;;;;;;;;4995418;28;20300;-57
2023/05/17 11:22:41;;;;;;;2.88;1.55;;;;;;;;;;5019546;28;20360;-57
2023/05/17 11:25:10;;;;;;;3.47;1.13;;;;;;;;;;5005082;28;20608;-57
2023/05/17 11:27:38;;;;;;;1.60;1.20;;;;;;;;;;5005405;28;20213;-57
2023/05/17 11:30:09;;;;;;;2.45;1.08;;;;;;;;;;5007866;28;20274;-57
2023/05/17 11:32:36;;;;;;;1.08;1.00;;;;;;;;;;5006764;28;20319;-55
2023/05/17 11:35:04;;;;;;;1.45;1.35;;;;;;;;;;5007080;28;20213;-56
2023/05/17 11:37:31;;;;;;;1.35;1.00;;;;;;;;;;5005655;28;20217;-56
2023/05/17 11:40:05;;;;;;;1.15;1.08;;;;;;;;;;5007439;28;20217;-56
2023/05/17 11:42:34;;;;;;;1.52;0.88;;;;;;;;;;4996873;28;20723;-56
2023/05/17 11:45:01;;;;;;;0.80;0.60;;;;;;;;;;4987583;28;20248;-56
2023/05/17 11:47:29;;;;;;;1.75;1.00;;;;;;;;;;4988816;28;20291;-56
2023/05/17 11:49:56;;;;;;;1.77;0.82;;;;;;;;;;4990516;28;20201;-56
2023/05/17 11:52:23;;;;;;;5.03;0.90;;;;;;;;;;5006469;28;20233;-56
2023/05/17 11:54:50;;;;;;;1.20;1.10;;;;;;;;;;5005184;28;20205;-57
2023/05/17 11:57:19;;;;;;;0.80;0.80;;;;;;;;;;5006273;28;20314;-57
2023/05/17 11:59:47;;;;;;;1.10;1.00;;;;;;;;;;5003818;28;20213;-57
2023/05/17 12:02:27;;;;;;;2.40;0.98;;;;;;;;;;4988818;28;20217;-57
2023/05/17 12:04:54;;;;;;;2.40;1.08;;;;;;;;;;5001629;28;20748;-57
2023/05/17 12:07:21;;;;;;;1.63;1.05;;;;;;;;;;5006448;28;20229;-55
2023/05/17 12:09:48;;;;;;;2.15;0.90;;;;;;;;;;5004400;28;20213;-58
2023/05/17 12:12:15;;;;;;;2.17;1.00;;;;;;;;;;5002106;28;20243;-57
2023/05/17 12:14:44;;;;;;;1.90;1.45;;;;;;;;;;5006878;28;20214;-57
2023/05/17 12:17:13;;;;;;;1.55;0.85;;;;;;;;;;5006441;28;20301;-57
2023/05/17 12:19:40;;;;;;;1.02;0.93;;;;;;;;;;4997684;28;20324;-57
2023/05/17 12:22:11;;;;;;;2.55;1.15;;;;;;;;;;5004869;28;20283;-57
2023/05/17 12:24:38;;;;;;;2.47;1.00;;;;;;;;;;4986735;28;20233;-57
2023/05/17 12:27:05;;;;;;;3.78;1.15;;;;;;;;;;4999442;28;20264;-57
2023/05/17 12:29:32;;;;;;;1.73;1.15;;;;;;;;;;5003474;28;20330;-57
2023/05/17 12:32:00;;;;;;;2.45;0.77;;;;;;;;;;5002527;28;20664;-57
2023/05/17 12:34:29;;;;;;;0.80;0.80;;;;;;;;;;5021345;28;20245;-57
2023/05/17 12:36:56;;;;;;;1.70;0.85;;;;;;;;;;4996241;28;20201;-58
2023/05/17 12:39:23;;;;;;;1.35;0.82;;;;;;;;;;5028629;28;20273;-58
2023/05/17 12:41:51;;;;;;;1.35;1.00;;;;;;;;;;5006667;28;20209;-58
2023/05/17 12:44:19;;;;;;;1.23;0.70;;;;;;;;;;5019867;28;20213;-57
2023/05/17 12:46:52;;;;;;;0.90;0.90;;;;;;;;;;5014566;28;20233;-58
2023/05/17 12:49:19;;;;;;;3.58;0.90;;;;;;;;;;5030140;28;20639;-58
2023/05/17 12:51:48;;;;;;;0.75;0.60;;;;;;;;;;5010824;28;20217;-57
2023/05/17 12:54:25;;;;;;;3.40;0.75;;;;;;;;;;5010274;28;20237;-58
2023/05/17 12:56:53;;;;;;;2.75;1.00;;;;;;;;;;5008785;28;20232;-58
2023/05/17 12:59:23;;;;;;;5.65;0.90;;;;;;;;;;5011523;28;20686;-57
2023/05/17 13:01:52;;;;;;;0.68;0.68;;;;;;;;;;5030090;28;20215;-57
2023/05/17 13:04:19;;;;;;;0.63;0.63;;;;;;;;;;5016474;28;20263;-58
2023/05/17 13:06:49;;;;;;;0.68;0.68;;;;;;;;;;5004998;28;20210;-58
2023/05/17 13:09:17;;;;;;;0.73;0.73;;;;;;;;;;4996346;28;20209;-58
2023/05/17 13:11:44;;;;;;;0.70;0.70;;;;;;;;;;5008275;28;20231;-57
2023/05/17 13:14:12;;;;;;;1.17;0.80;;;;;;;;;;4992748;28;20233;-57
2023/05/17 13:16:39;;;;;;;0.80;0.80;;;;;;;;;;5002289;28;20205;-57
2023/05/17 13:19:12;;;;;;;0.65;0.65;;;;;;;;;;5008308;28;20217;-58
2023/05/17 13:21:39;;;;;;;0.82;0.80;;;;;;;;;;5007567;28;20256;-58
2023/05/17 13:24:09;;;;;;;0.70;0.70;;;;;;;;;;5008885;28;20241;-58
2023/05/17 13:26:36;;;;;;;1.48;0.93;;;;;;;;;;5002551;28;20297;-57
2023/05/17 13:29:03;;;;;;;0.60;0.60;;;;;;;;;;4989670;28;20459;-58
2023/05/17 13:31:30;;;;;;;1.15;0.82;;;;;;;;;;4991562;28;20206;-56
2023/05/17 13:33:57;;;;;;;0.70;0.70;;;;;;;;;;4995967;28;20225;-56
2023/05/17 13:36:24;;;;;;;0.65;0.65;;;;;;;;;;4996784;28;20205;-56
2023/05/17 13:38:51;;;;;;;1.75;0.70;;;;;;;;;;4995247;28;20680;-56
2023/05/17 13:41:20;;;;;;;1.13;0.70;;;;;;;;;;4989025;28;20217;-56
2023/05/17 13:43:47;;;;;;;0.50;0.50;;;;;;;;;;5007842;28;20201;-56
2023/05/17 13:46:14;;;;;;;0.50;0.50;;;;;;;;;;5005473;28;20236;-56
2023/05/17 13:48:41;;;;;;;0.65;0.43;;;;;;;;;;5008380;28;20248;-56
2023/05/17 13:51:08;;;;;;;0.70;0.70;;;;;;;;;;5005352;28;20312;-56
2023/05/17 13:53:37;;;;;;;1.25;0.60;;;;;;;;;;5005079;28;20871;-56
2023/05/17 13:56:04;;;;;;;4.55;0.73;;;;;;;;;;4997629;28;20239;-56
2023/05/17 13:58:32;;;;;;;3.20;0.60;;;;;;;;;;5009117;28;20216;-56
2023/05/17 14:01:00;;;;;;;3.00;0.57;;;;;;;;;;5008696;28;20294;-56
2023/05/17 14:03:27;;;;;;;1.20;0.68;;;;;;;;;;5007256;28;20704;-56
2023/05/17 14:05:54;;;;;;;1.35;0.65;;;;;;;;;;5006173;28;20208;-56
2023/05/17 14:08:21;;;;;;;1.27;0.40;;;;;;;;;;4999263;28;20210;-56
2023/05/17 14:10:48;;;;;;;0.63;0.60;;;;;;;;;;4992484;28;20263;-56
2023/05/17 14:13:15;;;;;;;0.45;0.45;;;;;;;;;;4989206;28;20240;-56
2023/05/17 14:15:44;;;;;;;2.95;0.68;;;;;;;;;;4991470;28;20292;-56
2023/05/17 14:18:11;;;;;;;0.65;0.65;;;;;;;;;;5008938;28;20209;-57
2023/05/17 14:20:38;;;;;;;2.40;0.70;;;;;;;;;;4995211;28;20237;-56
2023/05/17 14:23:05;;;;;;;0.50;0.50;;;;;;;;;;4990573;28;20229;-56
2023/05/17 14:25:32;;;;;;;1.45;0.47;;;;;;;;;;5007990;28;20217;-57
2023/05/17 14:27:59;;;;;;;0.90;0.70;;;;;;;;;;4991059;28;20222;-56
2023/05/17 14:30:26;;;;;;;1.38;0.60;;;;;;;;;;4997046;28;20279;-56
2023/05/17 14:32:54;;;;;;;3.10;0.60;;;;;;;;;;5007107;28;20212;-57
2023/05/17 14:35:21;;;;;;;1.48;0.52;;;;;;;;;;5008369;28;20209;-56
2023/05/17 14:37:48;;;;;;;3.60;0.98;;;;;;;;;;4994242;28;20261;-58
2023/05/17 14:40:15;;;;;;;1.73;0.70;;;;;;;;;;5003127;28;20210;-56
2023/05/17 14:42:43;;;;;;;0.80;0.80;;;;;;;;;;4988539;28;20240;-56
2023/05/17 14:45:10;;;;;;;2.83;0.90;;;;;;;;;;4992441;28;20284;-56
2023/05/17 14:47:37;;;;;;;0.60;0.60;;;;;;;;;;4998683;28;20218;-57